Tucson, AZ

8:09 PM MST on October 21, 2014 (GMT -0700)
UA WRRC WEATHER | Change Station
CLOSE
Current Station
Personal Weather Station
Location: Tucson, AZ
Elevation: 2431 ft
Nearby Weather Stations

Elev 2431 ft 32.23 °N, 110.94 °W | Updated 2 minutes ago

Partly Cloudy
Partly Cloudy
77.0 °F
Feels Like 78 °F
N
6.0
Wind Variable Wind from WSW
Gusts 8.0 mph

Today
High -- | Low -- °F
--% Chance of Precip.
Yesterday
High -- | Low -- °F
Precip. -- in
6:32 AM 5:44 PM
Waning Crescent, 3% visible
Pressure 29.79 in
Visibility 6.0 miles
Clouds Clear
Heat Index 78 °F
Dew Point 48 °F
Humidity 36%
Rainfall 0.00 in
Snow Depth Not available.
UV 0 out of 12
Pollen 5.50 out of 12
Air Quality Not available.
Flu Activity No Activity
METAR KDMA 220258Z AUTO 29006KT 6SM R12/5000FT HZ CLR 23/09 A2989 RMK AO2 SLP088 T02290085 52008 $

More Conditions Fewer Conditions

Pressure 29.79 in
Visibility 6.0 miles
Clouds Clear
Heat Index 78 °F
Dew Point 48 °F
Humidity 36%
Rainfall 0.00 in
Snow Depth Not available.
UV 0 out of 12
Pollen 5.50 out of 12
Air Quality Not available.
Flu Activity No Activity
METAR KDMA 220258Z AUTO 29006KT 6SM R12/5000FT HZ CLR 23/09 A2989 RMK AO2 SLP088 T02290085 52008 $

More Conditions Fewer Conditions

10-Day Weather Forecast

Almanac

Astronomy

Oct. 21, 2014 Rise Set
Actual Time 6:32 AM MST 5:44 PM MST
Civil Twilight 6:07 AM MST 6:09 PM MST
Nautical Twilight 5:38 AM MST 6:37 PM MST
Astronomical Twilight 5:10 AM MST 7:06 PM MST
Moon 4:27 AM MST (10/21) 4:34 PM MST (10/21)
Length of Visible Light 12h 02m
Length of Day
11h 12m
Tomorrow will be 1m 50s shorter.
Waning Crescent, 3% of the Moon is Illuminated
Today
Waning Crescent
Oct 23
New
Oct 30
First Quarter
Nov 6
Full
Nov 14
Last Quarter

Today's Extremes

State Highs State Lows

Community

WunderPhotos

Upload Photos

1,763,866 photos uploaded!

Nearby

Snow Depth

Station Depth Elevation
Workman Creek 0 in 6900 ft
Wildcat 0 in 7850 ft
Hannagan Meadows 1 in 9020 ft
Beaver Head 0 in 7990 ft
Heber 0 in 7640 ft

Earthquake Activity

City Distance Mag. Time & Date
No recent earthquake activity has been reported nearby.
Minimum magnitude displayed is 2.5.

Coastal Water Temperatures

Place Temperature
No Stations Reporting

Nearby Weather Stations